Bagdad, Florida
Current Conditions -  °F | °C
As of 7:56 PM on Monday 24 Nov 2014 (Local Time) from KNDZ Reporting Station
Broken Clouds Broken Clouds  
Wind Chill: 64°   Ceiling: 9000
Heat Index: 64°   Visibility: 9mi
Dew Point: 55°   Wind: 8mph
Humidity: 72%   Direction: 350°N
Pressure: 29.94"   Gusts: NA
Location:  30.6°N, 87.04°W
Report Text: KNDZ 250156Z 35007KT 9SM BKN090 BKN250 18/13 A2994 RMK AO2 SLP125 T01780128
Loading
Personal Weather Stations






























Interactive Weather Map New forecast layout! Learn more

10-Day Weather Forecast

Advertisements
Track Severe Weather on mobile